sensor_id;sensor_type;location;lat;lon;timestamp;pressure;altitude;pressure_sealevel;temperature;humidity
75447;BME280;64024;55.820;37.574;2023-11-18T00:01:32;99628.84;;;15.15;47.16
75447;BME280;64024;55.820;37.574;2023-11-18T00:03:59;99631.78;;;15.14;47.18
75447;BME280;64024;55.820;37.574;2023-11-18T00:06:26;99635.47;;;15.13;47.13
75447;BME280;64024;55.820;37.574;2023-11-18T00:08:52;99635.72;;;15.11;46.71
75447;BME280;64024;55.820;37.574;2023-11-18T00:11:19;99644.78;;;15.10;47.02
75447;BME280;64024;55.820;37.574;2023-11-18T00:13:45;99641.50;;;15.08;46.76
75447;BME280;64024;55.820;37.574;2023-11-18T00:16:11;99639.88;;;15.07;47.22
75447;BME280;64024;55.820;37.574;2023-11-18T00:18:42;99637.44;;;15.06;47.14
75447;BME280;64024;55.820;37.574;2023-11-18T00:21:09;99643.81;;;15.05;47.17
75447;BME280;64024;55.820;37.574;2023-11-18T00:23:35;99646.75;;;15.03;46.90
75447;BME280;64024;55.820;37.574;2023-11-18T00:26:02;99641.63;;;15.02;46.71
75447;BME280;64024;55.820;37.574;2023-11-18T00:28:28;99647.19;;;15.00;46.58
75447;BME280;64024;55.820;37.574;2023-11-18T00:30:54;99649.84;;;15.00;46.56
75447;BME280;64024;55.820;37.574;2023-11-18T00:33:20;99642.31;;;14.97;46.68
75447;BME280;64024;55.820;37.574;2023-11-18T00:35:47;99646.81;;;14.97;46.61
75447;BME280;64024;55.820;37.574;2023-11-18T00:38:13;99647.88;;;14.96;46.56
75447;BME280;64024;55.820;37.574;2023-11-18T00:40:39;99648.09;;;14.94;46.81
75447;BME280;64024;55.820;37.574;2023-11-18T00:43:06;99653.66;;;14.92;46.55
75447;BME280;64024;55.820;37.574;2023-11-18T00:45:34;99660.06;;;14.91;46.84
75447;BME280;64024;55.820;37.574;2023-11-18T00:48:00;99654.94;;;14.90;46.70
75447;BME280;64024;55.820;37.574;2023-11-18T00:50:27;99667.72;;;14.88;46.67
75447;BME280;64024;55.820;37.574;2023-11-18T00:52:54;99665.28;;;14.86;46.46
75447;BME280;64024;55.820;37.574;2023-11-18T00:55:20;99661.78;;;14.86;46.30
75447;BME280;64024;55.820;37.574;2023-11-18T00:57:46;99663.66;;;14.85;46.63
75447;BME280;64024;55.820;37.574;2023-11-18T01:00:13;99659.31;;;14.84;46.49
75447;BME280;64024;55.820;37.574;2023-11-18T01:02:41;99659.31;;;14.84;46.85
75447;BME280;64024;55.820;37.574;2023-11-18T01:05:07;99666.34;;;14.85;46.53
75447;BME280;64024;55.820;37.574;2023-11-18T01:07:37;99664.69;;;14.84;46.20
75447;BME280;64024;55.820;37.574;2023-11-18T01:10:05;99671.06;;;14.83;46.02
75447;BME280;64024;55.820;37.574;2023-11-18T01:12:32;99670.25;;;14.83;46.19
75447;BME280;64024;55.820;37.574;2023-11-18T01:14:59;99674.19;;;14.80;46.16
75447;BME280;64024;55.820;37.574;2023-11-18T01:17:26;99672.56;;;14.79;46.10
75447;BME280;64024;55.820;37.574;2023-11-18T01:19:53;99668.50;;;14.77;46.00
75447;BME280;64024;55.820;37.574;2023-11-18T01:22:19;99666.84;;;14.76;46.06
75447;BME280;64024;55.820;37.574;2023-11-18T01:24:46;99673.25;;;14.75;46.16
75447;BME280;64024;55.820;37.574;2023-11-18T01:27:13;99673.47;;;14.73;46.31
75447;BME280;64024;55.820;37.574;2023-11-18T01:29:39;99672.88;;;14.71;45.91
75447;BME280;64024;55.820;37.574;2023-11-18T01:32:06;99677.66;;;14.69;45.71
75447;BME280;64024;55.820;37.574;2023-11-18T01:34:35;99679.72;;;14.67;46.11
75447;BME280;64024;55.820;37.574;2023-11-18T01:37:04;99679.72;;;14.67;45.66
75447;BME280;64024;55.820;37.574;2023-11-18T01:39:33;99682.63;;;14.65;46.09
75447;BME280;64024;55.820;37.574;2023-11-18T01:42:01;99684.69;;;14.63;45.58
75447;BME280;64024;55.820;37.574;2023-11-18T01:44:29;99674.22;;;14.62;45.87
75447;BME280;64024;55.820;37.574;2023-11-18T01:46:58;99685.16;;;14.60;45.63
75447;BME280;64024;55.820;37.574;2023-11-18T01:49:26;99681.88;;;14.58;45.80
75447;BME280;64024;55.820;37.574;2023-11-18T01:51:53;99679.63;;;14.55;45.64
75447;BME280;64024;55.820;37.574;2023-11-18T01:54:21;99673.47;;;14.55;45.96
75447;BME280;64024;55.820;37.574;2023-11-18T01:56:51;99671.03;;;14.53;45.45
75447;BME280;64024;55.820;37.574;2023-11-18T01:59:21;99673.09;;;14.51;45.73
75447;BME280;64024;55.820;37.574;2023-11-18T02:01:51;99676.81;;;14.50;45.17
75447;BME280;64024;55.820;37.574;2023-11-18T02:04:20;99686.91;;;14.48;45.66
75447;BME280;64024;55.820;37.574;2023-11-18T02:06:51;99686.09;;;14.48;45.77
75447;BME280;64024;55.820;37.574;2023-11-18T02:09:20;99689.78;;;14.47;45.66
75447;BME280;64024;55.820;37.574;2023-11-18T02:12:04;99687.34;;;14.45;45.43
75447;BME280;64024;55.820;37.574;2023-11-18T02:14:39;99674.19;;;14.43;45.10
75447;BME280;64024;55.820;37.574;2023-11-18T02:17:07;99675.44;;;14.41;45.30
75447;BME280;64024;55.820;37.574;2023-11-18T02:19:37;99675.69;;;14.39;45.41
75447;BME280;64024;55.820;37.574;2023-11-18T02:22:05;99678.56;;;14.38;45.08
75447;BME280;64024;55.820;37.574;2023-11-18T02:24:36;99676.94;;;14.37;45.26
75447;BME280;64024;55.820;37.574;2023-11-18T02:27:05;99673.69;;;14.35;45.51
75447;BME280;64024;55.820;37.574;2023-11-18T02:29:42;99681.69;;;14.35;45.19
75447;BME280;64024;55.820;37.574;2023-11-18T02:32:23;99679.22;;;14.33;45.11
75447;BME280;64024;55.820;37.574;2023-11-18T02:35:09;99675.16;;;14.31;45.33
75447;BME280;64024;55.820;37.574;2023-11-18T02:37:40;99683.19;;;14.31;45.38
75447;BME280;64024;55.820;37.574;2023-11-18T02:40:11;99679.09;;;14.28;45.38
75447;BME280;64024;55.820;37.574;2023-11-18T02:42:44;99674.78;;;14.27;45.13
75447;BME280;64024;55.820;37.574;2023-11-18T02:45:13;99679.53;;;14.25;45.03
75447;BME280;64024;55.820;37.574;2023-11-18T02:47:44;99683.22;;;14.24;45.08
75447;BME280;64024;55.820;37.574;2023-11-18T02:50:10;99679.94;;;14.22;45.37
75447;BME280;64024;55.820;37.574;2023-11-18T02:52:37;99683.66;;;14.21;45.17
75447;BME280;64024;55.820;37.574;2023-11-18T02:55:08;99679.13;;;14.22;45.20
75447;BME280;64024;55.820;37.574;2023-11-18T02:57:35;99683.66;;;14.21;45.43
75447;BME280;64024;55.820;37.574;2023-11-18T03:00:02;99680.19;;;14.21;45.31
75447;BME280;64024;55.820;37.574;2023-11-18T03:02:30;99682.03;;;14.20;45.43
75447;BME280;64024;55.820;37.574;2023-11-18T03:05:00;99681.44;;;14.18;45.80
75447;BME280;64024;55.820;37.574;2023-11-18T03:07:27;99678.75;;;14.18;45.54
75447;BME280;64024;55.820;37.574;2023-11-18T03:09:53;99688.63;;;14.17;45.68
75447;BME280;64024;55.820;37.574;2023-11-18T03:12:23;99679.00;;;14.16;45.75
75447;BME280;64024;55.820;37.574;2023-11-18T03:14:53;99680.84;;;14.16;46.04
75447;BME280;64024;55.820;37.574;2023-11-18T03:17:19;99683.75;;;14.14;46.64
75447;BME280;64024;55.820;37.574;2023-11-18T03:19:45;99683.94;;;14.13;46.57
75447;BME280;64024;55.820;37.574;2023-11-18T03:22:12;99689.31;;;14.13;46.47
75447;BME280;64024;55.820;37.574;2023-11-18T03:24:38;99691.97;;;14.13;46.48
75447;BME280;64024;55.820;37.574;2023-11-18T03:27:05;99686.84;;;14.11;46.55
75447;BME280;64024;55.820;37.574;2023-11-18T03:29:31;99696.50;;;14.12;46.48
75447;BME280;64024;55.820;37.574;2023-11-18T03:31:57;99697.53;;;14.11;47.09
75447;BME280;64024;55.820;37.574;2023-11-18T03:34:23;99694.06;;;14.11;47.09
75447;BME280;64024;55.820;37.574;2023-11-18T03:36:50;99696.72;;;14.11;46.89
75447;BME280;64024;55.820;37.574;2023-11-18T03:39:17;99693.25;;;14.10;46.71
75447;BME280;64024;55.820;37.574;2023-11-18T03:41:44;99688.91;;;14.09;47.14
75447;BME280;64024;55.820;37.574;2023-11-18T03:44:12;99684.38;;;14.10;46.72
75447;BME280;64024;55.820;37.574;2023-11-18T03:46:38;99684.63;;;14.08;46.63
75447;BME280;64024;55.820;37.574;2023-11-18T03:49:05;99687.28;;;14.08;46.71
75447;BME280;64024;55.820;37.574;2023-11-18T03:51:33;99689.16;;;14.08;46.62
75447;BME280;64024;55.820;37.574;2023-11-18T03:53:59;99695.47;;;14.13;46.49
75447;BME280;64024;55.820;37.574;2023-11-18T03:56:25;99687.06;;;14.10;46.70
75447;BME280;64024;55.820;37.574;2023-11-18T03:58:52;99693.69;;;14.07;46.34
75447;BME280;64024;55.820;37.574;2023-11-18T04:01:25;99693.88;;;14.06;46.30
75447;BME280;64024;55.820;37.574;2023-11-18T04:03:55;99699.44;;;14.04;46.47
75447;BME280;64024;55.820;37.574;2023-11-18T04:06:22;99694.34;;;14.03;46.30
75447;BME280;64024;55.820;37.574;2023-11-18T04:08:50;99691.88;;;14.01;46.28
75447;BME280;64024;55.820;37.574;2023-11-18T04:11:17;99688.19;;;14.02;46.42
75447;BME280;64024;55.820;37.574;2023-11-18T04:13:44;99689.19;;;14.01;46.59
75447;BME280;64024;55.820;37.574;2023-11-18T04:16:14;99693.72;;;14.01;46.31
75447;BME280;64024;55.820;37.574;2023-11-18T04:18:43;99695.81;;;13.99;46.34
75447;BME280;64024;55.820;37.574;2023-11-18T04:21:10;99703.00;;;13.98;46.29
75447;BME280;64024;55.820;37.574;2023-11-18T04:23:38;99703.81;;;13.99;46.32
75447;BME280;64024;55.820;37.574;2023-11-18T04:26:05;99696.00;;;13.97;45.97
75447;BME280;64024;55.820;37.574;2023-11-18T04:28:33;99708.56;;;13.97;46.15
75447;BME280;64024;55.820;37.574;2023-11-18T04:31:00;99698.91;;;13.96;46.33
75447;BME280;64024;55.820;37.574;2023-11-18T04:33:28;99694.63;;;13.95;45.73
75447;BME280;64024;55.820;37.574;2023-11-18T04:35:55;99702.00;;;13.92;46.21
75447;BME280;64024;55.820;37.574;2023-11-18T04:38:25;99696.91;;;13.91;46.13
75447;BME280;64024;55.820;37.574;2023-11-18T04:40:52;99703.88;;;13.92;45.84
75447;BME280;64024;55.820;37.574;2023-11-18T04:43:20;99704.31;;;13.89;45.62
75447;BME280;64024;55.820;37.574;2023-11-18T04:45:47;99704.31;;;13.89;45.80
75447;BME280;64024;55.820;37.574;2023-11-18T04:48:13;99706.16;;;13.88;45.57
75447;BME280;64024;55.820;37.574;2023-11-18T04:50:41;99707.19;;;13.87;45.63
75447;BME280;64024;55.820;37.574;2023-11-18T04:53:08;99703.72;;;13.87;46.12
75447;BME280;64024;55.820;37.574;2023-11-18T04:55:40;99702.91;;;13.86;45.72
75447;BME280;64024;55.820;37.574;2023-11-18T04:58:06;99696.94;;;13.84;45.65
75447;BME280;64024;55.820;37.574;2023-11-18T05:00:33;99702.28;;;13.84;45.37
75447;BME280;64024;55.820;37.574;2023-11-18T05:02:58;99704.16;;;13.84;45.69
75447;BME280;64024;55.820;37.574;2023-11-18T05:05:24;99698.00;;;13.83;45.50
75447;BME280;64024;55.820;37.574;2023-11-18T05:07:50;99692.66;;;13.83;45.56
75447;BME280;64024;55.820;37.574;2023-11-18T05:10:16;99699.84;;;13.83;45.55
75447;BME280;64024;55.820;37.574;2023-11-18T05:12:44;99702.66;;;13.88;45.81
75447;BME280;64024;55.820;37.574;2023-11-18T05:15:09;99694.22;;;13.91;45.55
75447;BME280;64024;55.820;37.574;2023-11-18T05:17:39;99700.22;;;13.86;45.30
75447;BME280;64024;55.820;37.574;2023-11-18T05:20:07;99700.88;;;13.82;45.56
75447;BME280;64024;55.820;37.574;2023-11-18T05:22:35;99705.63;;;13.80;45.66
75447;BME280;64024;55.820;37.574;2023-11-18T05:25:05;99712.81;;;13.79;45.66
75447;BME280;64024;55.820;37.574;2023-11-18T05:27:33;99710.38;;;13.78;45.51
75447;BME280;64024;55.820;37.574;2023-11-18T05:29:59;99713.25;;;13.76;45.53
75447;BME280;64024;55.820;37.574;2023-11-18T05:32:28;99718.59;;;13.76;45.72
75447;BME280;64024;55.820;37.574;2023-11-18T05:34:54;99719.41;;;13.77;45.90
75447;BME280;64024;55.820;37.574;2023-11-18T05:37:23;99719.41;;;13.77;45.62
75447;BME280;64024;55.820;37.574;2023-11-18T05:39:50;99723.72;;;13.78;45.92
75447;BME280;64024;55.820;37.574;2023-11-18T05:42:25;99722.91;;;13.77;45.83
75447;BME280;64024;55.820;37.574;2023-11-18T05:44:51;99722.91;;;13.77;46.19
75447;BME280;64024;55.820;37.574;2023-11-18T05:47:24;99714.84;;;13.84;45.95
75447;BME280;64024;55.820;37.574;2023-11-18T05:49:54;99721.22;;;13.83;45.71
75447;BME280;64024;55.820;37.574;2023-11-18T05:52:22;99724.13;;;13.81;45.95
75447;BME280;64024;55.820;37.574;2023-11-18T05:54:48;99719.78;;;13.80;45.81
75447;BME280;64024;55.820;37.574;2023-11-18T05:57:18;99727.00;;;13.80;45.66
75447;BME280;64024;55.820;37.574;2023-11-18T05:59:45;99730.47;;;13.80;46.08
75447;BME280;64024;55.820;37.574;2023-11-18T06:02:14;99725.94;;;13.81;45.96
75447;BME280;64024;55.820;37.574;2023-11-18T06:04:46;99734.81;;;13.81;45.85
75447;BME280;64024;55.820;37.574;2023-11-18T06:07:15;99738.28;;;13.82;46.04
75447;BME280;64024;55.820;37.574;2023-11-18T06:09:41;99736.44;;;13.82;46.14
75447;BME280;64024;55.820;37.574;2023-11-18T06:12:08;99740.97;;;13.82;45.73
75447;BME280;64024;55.820;37.574;2023-11-18T06:14:39;99743.41;;;13.83;45.76
75447;BME280;64024;55.820;37.574;2023-11-18T06:17:07;99745.25;;;13.83;45.85
75447;BME280;64024;55.820;37.574;2023-11-18T06:19:34;99750.38;;;13.84;46.18
75447;BME280;64024;55.820;37.574;2023-11-18T06:22:00;99745.84;;;13.85;45.98
75447;BME280;64024;55.820;37.574;2023-11-18T06:24:26;99737.00;;;13.84;46.13
75447;BME280;64024;55.820;37.574;2023-11-18T06:26:53;99736.00;;;13.85;46.26
75447;BME280;64024;55.820;37.574;2023-11-18T06:29:20;99729.63;;;13.86;45.88
75447;BME280;64024;55.820;37.574;2023-11-18T06:31:46;99745.41;;;13.88;46.29
75447;BME280;64024;55.820;37.574;2023-11-18T06:34:13;99740.06;;;13.88;45.81
75447;BME280;64024;55.820;37.574;2023-11-18T06:36:39;99748.09;;;13.88;46.14
75447;BME280;64024;55.820;37.574;2023-11-18T06:39:05;99739.88;;;13.89;46.10
75447;BME280;64024;55.820;37.574;2023-11-18T06:41:32;99743.28;;;13.97;45.88
75447;BME280;64024;55.820;37.574;2023-11-18T06:43:59;99743.53;;;13.95;46.02
75447;BME280;64024;55.820;37.574;2023-11-18T06:46:35;99750.72;;;13.95;45.88
75447;BME280;64024;55.820;37.574;2023-11-18T06:49:03;99749.09;;;13.93;46.06
75447;BME280;64024;55.820;37.574;2023-11-18T06:51:33;99755.25;;;13.94;45.90
75447;BME280;64024;55.820;37.574;2023-11-18T06:54:05;99757.94;;;13.94;46.05
75447;BME280;64024;55.820;37.574;2023-11-18T06:56:35;99757.13;;;13.93;46.39
75447;BME280;64024;55.820;37.574;2023-11-18T06:59:05;99763.84;;;13.96;46.23
75447;BME280;64024;55.820;37.574;2023-11-18T07:01:36;99762.00;;;13.97;46.61
75447;BME280;64024;55.820;37.574;2023-11-18T07:04:03;99763.22;;;14.01;46.89
75447;BME280;64024;55.820;37.574;2023-11-18T07:06:29;99755.34;;;14.06;47.17
75447;BME280;64024;55.820;37.574;2023-11-18T07:08:55;99747.28;;;14.12;46.69
75447;BME280;64024;55.820;37.574;2023-11-18T07:11:26;99743.75;;;14.18;46.89
75447;BME280;64024;55.820;37.574;2023-11-18T07:13:53;99736.03;;;14.29;46.74
75447;BME280;64024;55.820;37.574;2023-11-18T07:16:24;99732.84;;;14.38;46.74
75447;BME280;64024;55.820;37.574;2023-11-18T07:18:49;99737.47;;;14.56;46.58
75447;BME280;64024;55.820;37.574;2023-11-18T07:21:15;99740.22;;;14.68;46.02
75447;BME280;64024;55.820;37.574;2023-11-18T07:23:41;99740.50;;;14.78;46.24
75447;BME280;64024;55.820;37.574;2023-11-18T07:26:08;99731.75;;;14.89;45.83
75447;BME280;64024;55.820;37.574;2023-11-18T07:28:35;99736.84;;;15.09;45.56
75447;BME280;64024;55.820;37.574;2023-11-18T07:31:01;99730.72;;;15.21;45.69
75447;BME280;64024;55.820;37.574;2023-11-18T07:33:30;99736.94;;;15.33;45.68
75447;BME280;64024;55.820;37.574;2023-11-18T07:36:00;99742.13;;;15.46;45.31
75447;BME280;64024;55.820;37.574;2023-11-18T07:38:28;99734.50;;;15.61;45.06
75447;BME280;64024;55.820;37.574;2023-11-18T07:40:56;99745.03;;;15.75;44.79
75447;BME280;64024;55.820;37.574;2023-11-18T07:43:23;99746.47;;;15.89;44.84
75447;BME280;64024;55.820;37.574;2023-11-18T07:45:49;99740.66;;;16.04;44.79
75447;BME280;64024;55.820;37.574;2023-11-18T07:48:18;99737.75;;;16.17;44.51
75447;BME280;64024;55.820;37.574;2023-11-18T07:50:46;99741.84;;;16.31;44.49
75447;BME280;64024;55.820;37.574;2023-11-18T07:53:13;99746.97;;;16.45;44.34
75447;BME280;64024;55.820;37.574;2023-11-18T07:55:40;99742.19;;;16.58;44.10
75447;BME280;64024;55.820;37.574;2023-11-18T07:58:09;99744.66;;;16.72;44.17
75447;BME280;64024;55.820;37.574;2023-11-18T08:00:38;99755.16;;;16.85;43.76
75447;BME280;64024;55.820;37.574;2023-11-18T08:03:06;99754.41;;;17.01;43.59
75447;BME280;64024;55.820;37.574;2023-11-18T08:05:44;99751.56;;;17.20;43.55
75447;BME280;64024;55.820;37.574;2023-11-18T08:08:13;99747.63;;;17.39;43.25
75447;BME280;64024;55.820;37.574;2023-11-18T08:10:42;99749.06;;;17.58;43.13
75447;BME280;64024;55.820;37.574;2023-11-18T08:13:10;99752.38;;;17.77;43.03
75447;BME280;64024;55.820;37.574;2023-11-18T08:15:41;99746.78;;;17.96;42.94
75447;BME280;64024;55.820;37.574;2023-11-18T08:18:09;99749.16;;;18.09;42.42
75447;BME280;64024;55.820;37.574;2023-11-18T08:20:38;99738.53;;;18.19;42.12
75447;BME280;64024;55.820;37.574;2023-11-18T08:23:05;99738.59;;;18.24;41.85
75447;BME280;64024;55.820;37.574;2023-11-18T08:25:34;99736.25;;;18.28;41.65
75447;BME280;64024;55.820;37.574;2023-11-18T08:28:04;99739.53;;;18.30;41.54
75447;BME280;64024;55.820;37.574;2023-11-18T08:30:31;99764.28;;;18.32;41.13
75447;BME280;64024;55.820;37.574;2023-11-18T08:32:59;99755.88;;;18.28;39.90
75447;BME280;64024;55.820;37.574;2023-11-18T08:35:26;99739.34;;;18.20;39.25
75447;BME280;64024;55.820;37.574;2023-11-18T08:37:54;99736.50;;;18.09;39.35
75447;BME280;64024;55.820;37.574;2023-11-18T08:40:21;99735.38;;;18.05;39.67
75447;BME280;64024;55.820;37.574;2023-11-18T08:42:51;99733.75;;;18.04;39.86
75447;BME280;64024;55.820;37.574;2023-11-18T08:45:23;99730.22;;;18.04;40.09
75447;BME280;64024;55.820;37.574;2023-11-18T08:47:56;99725.34;;;18.01;40.34
75447;BME280;64024;55.820;37.574;2023-11-18T08:50:23;99722.06;;;17.99;40.56
75447;BME280;64024;55.820;37.574;2023-11-18T08:52:50;99727.72;;;17.97;40.63
75447;BME280;64024;55.820;37.574;2023-11-18T08:55:30;99737.88;;;17.95;40.77
75447;BME280;64024;55.820;37.574;2023-11-18T08:58:07;99723.88;;;17.93;40.63
75447;BME280;64024;55.820;37.574;2023-11-18T09:00:58;99726.81;;;17.92;40.82
75447;BME280;64024;55.820;37.574;2023-11-18T09:03:32;99733.50;;;17.89;40.81
75447;BME280;64024;55.820;37.574;2023-11-18T09:06:06;99735.03;;;17.85;40.95
75447;BME280;64024;55.820;37.574;2023-11-18T09:08:47;99734.69;;;17.81;40.93
75447;BME280;64024;55.820;37.574;2023-11-18T09:11:18;99736.25;;;17.77;41.26
75447;BME280;64024;55.820;37.574;2023-11-18T09:13:47;99735.88;;;17.74;41.14
75447;BME280;64024;55.820;37.574;2023-11-18T09:16:15;99730.16;;;17.70;41.46
75447;BME280;64024;55.820;37.574;2023-11-18T09:18:43;99726.34;;;17.66;41.33
75447;BME280;64024;55.820;37.574;2023-11-18T09:21:12;99730.56;;;17.62;41.39
75447;BME280;64024;55.820;37.574;2023-11-18T09:23:45;99732.94;;;17.58;41.40
75447;BME280;64024;55.820;37.574;2023-11-18T09:26:26;99727.25;;;17.55;41.32
75447;BME280;64024;55.820;37.574;2023-11-18T09:29:11;99722.59;;;17.50;41.41
75447;BME280;64024;55.820;37.574;2023-11-18T09:31:52;99723.06;;;17.47;41.57
75447;BME280;64024;55.820;37.574;2023-11-18T09:34:18;99732.06;;;17.41;41.57
75447;BME280;64024;55.820;37.574;2023-11-18T09:36:56;99737.09;;;17.37;41.53
75447;BME280;64024;55.820;37.574;2023-11-18T09:39:25;99731.66;;;17.32;41.55
75447;BME280;64024;55.820;37.574;2023-11-18T09:42:18;99727.81;;;17.28;41.51
75447;BME280;64024;55.820;37.574;2023-11-18T09:44:46;99730.16;;;17.25;41.65
75447;BME280;64024;55.820;37.574;2023-11-18T09:47:14;99722.81;;;17.20;41.67
75447;BME280;64024;55.820;37.574;2023-11-18T09:49:45;99723.53;;;17.15;41.75
75447;BME280;64024;55.820;37.574;2023-11-18T09:52:18;99719.69;;;17.11;41.80
75447;BME280;64024;55.820;37.574;2023-11-18T09:55:02;99727.19;;;17.09;41.82
75447;BME280;64024;55.820;37.574;2023-11-18T09:57:36;99714.47;;;17.05;41.84
75447;BME280;64024;55.820;37.574;2023-11-18T10:00:15;99714.94;;;17.02;42.05
75447;BME280;64024;55.820;37.574;2023-11-18T10:02:48;99713.53;;;16.99;41.81
75447;BME280;64024;55.820;37.574;2023-11-18T10:05:21;99716.72;;;16.96;42.04
75447;BME280;64024;55.820;37.574;2023-11-18T10:07:53;99717.75;;;16.95;41.99
75447;BME280;64024;55.820;37.574;2023-11-18T10:10:22;99735.28;;;16.98;40.82
75447;BME280;64024;55.820;37.574;2023-11-18T10:12:49;99739.03;;;16.97;39.52
75447;BME280;64024;55.820;37.574;2023-11-18T10:15:24;99743.78;;;16.95;38.23
75447;BME280;64024;55.820;37.574;2023-11-18T10:17:52;99735.41;;;16.91;37.22
75447;BME280;64024;55.820;37.574;2023-11-18T10:20:47;99732.38;;;16.87;36.27
75447;BME280;64024;55.820;37.574;2023-11-18T10:23:20;99724.22;;;16.82;35.81
75447;BME280;64024;55.820;37.574;2023-11-18T10:25:54;99730.03;;;16.79;35.00
75447;BME280;64024;55.820;37.574;2023-11-18T10:28:28;99734.25;;;16.75;34.13
75447;BME280;64024;55.820;37.574;2023-11-18T10:31:00;99730.38;;;16.71;33.90
75447;BME280;64024;55.820;37.574;2023-11-18T10:33:36;99724.91;;;16.66;33.66
75447;BME280;64024;55.820;37.574;2023-11-18T10:36:04;99718.16;;;16.63;33.56
75447;BME280;64024;55.820;37.574;2023-11-18T10:38:32;99722.38;;;16.59;33.22
75447;BME280;64024;55.820;37.574;2023-11-18T10:41:02;99730.06;;;16.56;32.75
75447;BME280;64024;55.820;37.574;2023-11-18T10:43:31;99724.34;;;16.52;32.44
75447;BME280;64024;55.820;37.574;2023-11-18T10:46:09;99726.44;;;16.50;32.12
75447;BME280;64024;55.820;37.574;2023-11-18T10:48:50;99726.94;;;16.47;31.91
75447;BME280;64024;55.820;37.574;2023-11-18T10:51:18;99728.19;;;16.45;32.08
75447;BME280;64024;55.820;37.574;2023-11-18T10:53:53;99736.50;;;16.43;31.61
75447;BME280;64024;55.820;37.574;2023-11-18T10:56:25;99727.03;;;16.40;31.44
75447;BME280;64024;55.820;37.574;2023-11-18T10:58:59;99736.97;;;16.40;31.20
75447;BME280;64024;55.820;37.574;2023-11-18T11:01:35;99732.66;;;16.39;30.95
75447;BME280;64024;55.820;37.574;2023-11-18T11:04:11;99733.09;;;16.36;31.14
75447;BME280;64024;55.820;37.574;2023-11-18T11:06:42;99733.56;;;16.33;30.74
75447;BME280;64024;55.820;37.574;2023-11-18T11:09:10;99731.94;;;16.32;30.91
75447;BME280;64024;55.820;37.574;2023-11-18T11:11:54;99723.91;;;16.32;30.64
75447;BME280;64024;55.820;37.574;2023-11-18T11:14:23;99713.16;;;16.32;30.67
75447;BME280;64024;55.820;37.574;2023-11-18T11:17:06;99711.06;;;16.34;31.63
75447;BME280;64024;55.820;37.574;2023-11-18T11:22:24;99713.50;;;16.47;32.84
75447;BME280;64024;55.820;37.574;2023-11-18T11:25:16;99718.28;;;16.57;33.52
75447;BME280;64024;55.820;37.574;2023-11-18T11:28:03;99710.22;;;16.69;34.21
75447;BME280;64024;55.820;37.574;2023-11-18T11:30:45;99720.16;;;16.80;34.67
75447;BME280;64024;55.820;37.574;2023-11-18T11:33:33;99707.28;;;16.94;35.17
75447;BME280;64024;55.820;37.574;2023-11-18T11:36:15;99714.22;;;17.06;35.44
75447;BME280;64024;55.820;37.574;2023-11-18T11:38:43;99717.44;;;17.20;35.70
75447;BME280;64024;55.820;37.574;2023-11-18T11:41:13;99708.88;;;17.35;36.12
75447;BME280;64024;55.820;37.574;2023-11-18T11:43:48;99698.16;;;17.52;36.24
75447;BME280;64024;55.820;37.574;2023-11-18T11:46:16;99706.72;;;17.65;36.32
75447;BME280;64024;55.820;37.574;2023-11-18T11:48:51;99702.69;;;17.80;36.57
75447;BME280;64024;55.820;37.574;2023-11-18T11:51:29;99705.88;;;17.94;36.72
75447;BME280;64024;55.820;37.574;2023-11-18T11:54:09;99708.47;;;18.05;36.86
75447;BME280;64024;55.820;37.574;2023-11-18T11:56:46;99706.19;;;18.14;36.80
75447;BME280;64024;55.820;37.574;2023-11-18T11:59:16;99709.28;;;18.23;36.81
75447;BME280;64024;55.820;37.574;2023-11-18T12:01:42;99697.75;;;18.27;37.09
75447;BME280;64024;55.820;37.574;2023-11-18T12:04:14;99699.72;;;18.32;37.09
75447;BME280;64024;55.820;37.574;2023-11-18T12:06:47;99699.22;;;18.35;37.39
75447;BME280;64024;55.820;37.574;2023-11-18T12:09:15;99706.81;;;18.38;38.05
75447;BME280;64024;55.820;37.574;2023-11-18T12:11:58;99698.47;;;18.39;38.33
75447;BME280;64024;55.820;37.574;2023-11-18T12:14:26;99706.28;;;18.41;38.45
75447;BME280;64024;55.820;37.574;2023-11-18T12:17:07;99705.25;;;18.42;38.99
75447;BME280;64024;55.820;37.574;2023-11-18T12:19:41;99699.88;;;18.42;39.04
75447;BME280;64024;55.820;37.574;2023-11-18T12:22:14;99699.88;;;18.42;39.29
75447;BME280;64024;55.820;37.574;2023-11-18T12:27:43;99693.91;;;18.40;39.52
75447;BME280;64024;55.820;37.574;2023-11-18T12:35:25;99704.28;;;18.31;39.52
75447;BME280;64024;55.820;37.574;2023-11-18T12:38:11;99710.41;;;18.27;39.44
75447;BME280;64024;55.820;37.574;2023-11-18T12:40:56;99697.69;;;18.22;39.26
75447;BME280;64024;55.820;37.574;2023-11-18T12:43:47;99704.88;;;18.17;39.35
75447;BME280;64024;55.820;37.574;2023-11-18T12:49:17;99706.59;;;18.06;39.06
75447;BME280;64024;55.820;37.574;2023-11-18T12:51:51;99705.72;;;18.00;39.39
75447;BME280;64024;55.820;37.574;2023-11-18T12:54:23;99702.91;;;17.95;39.34
75447;BME280;64024;55.820;37.574;2023-11-18T12:56:55;99709.03;;;17.91;39.58
75447;BME280;64024;55.820;37.574;2023-11-18T12:59:22;99709.22;;;17.84;39.38
75447;BME280;64024;55.820;37.574;2023-11-18T13:01:49;99712.38;;;17.81;39.46
75447;BME280;64024;55.820;37.574;2023-11-18T13:04:25;99719.56;;;17.75;39.46
75447;BME280;64024;55.820;37.574;2023-11-18T13:06:53;99717.53;;;17.71;39.67
75447;BME280;64024;55.820;37.574;2023-11-18T13:09:22;99719.09;;;17.67;39.85
75447;BME280;64024;55.820;37.574;2023-11-18T13:11:55;99719.00;;;17.61;39.90
75447;BME280;64024;55.820;37.574;2023-11-18T13:14:26;99723.22;;;17.57;40.01
75447;BME280;64024;55.820;37.574;2023-11-18T13:16:58;99719.66;;;17.52;40.14
75447;BME280;64024;55.820;37.574;2023-11-18T13:19:27;99724.69;;;17.48;40.12